Tiempo atmosférico en la estación meteorológica de Rivilla De Barajas, Ávila (925 m.)



Fecha
DESCASC
Temp. máxima en grados centígrados (hora)
DESCASC
Temp. mínima en grados centígrados (hora)
DESCASC
Temp. media en grados centígrados
DESCASC
Racha de viento máxima en m/sg (hora)
DESCASC
Velocidad máxima media en intervalos de 10 minutos(hora)
DESCASC
Precipitaciones diarias en mm
DESCASC
Precipitaciones de 00:00 a 06:00 en mm
DESCASC
Precipitaciones de 06:00 a 12:00 en mm
DESCASC
Precipitaciones de 12:00 a 18:00 en mm
DESCASC
Precipitaciones de 18:00 a 24:00 en mm
DESCASC
11-08-2020 24.4 (00:00) 14.4 (23:20) 19.4 20 (22:10) 10.56 (22:20) 18 0 0 5.8 12.2
10-08-2020 33.3 (15:00) 17.7 (07:40) 25.5 13.33 (18:50) 7.22 (18:50) 0 0 0 0 0
09-08-2020 34.2 (16:00) 20.3 (06:00) 27.3 13.06 (16:20) 8.06 (16:20) 0 0 0 0 0
08-08-2020 35.7 (16:00) 20.1 (06:50) 27.9 16.39 (17:00) 9.72 (17:00) 0.4 0 0 0.4 0
07-08-2020 36.5 (17:50) 21.6 (00:00) 29.1 13.89 (14:40) 7.78 (19:20) 0 0 0 0 0
06-08-2020 36.4 (18:10) 18.9 (00:00) 27.7 8.61 (13:10) 4.72 (19:50) 0 0 0 0 0
05-08-2020 32.4 (18:40) 16.6 (00:00) 24.5 7.22 (15:30) 3.89 (13:50) 0 0 0 0 0
04-08-2020 28.9 (18:10) 12.8 (07:20) 20.8 8.33 (18:10) 4.17 (15:50) 0 0 0 0 0
03-08-2020 27.1 (17:40) 13.1 (07:20) 20.1 6.94 (17:30) 4.17 (20:30) 0 0 0 0 0
02-08-2020 27.9 (18:30) 13.4 (00:00) 20.6 8.33 (21:30) 5.83 (21:30) 0 0 0 0 0
01-08-2020 31.6 (18:00) 18.3 (00:00) 24.9 11.11 (18:10) 7.22 (17:10) 0 0 0 0 0
31-07-2020 34.8 (17:40) 17.9 (07:30) 26.3 10.83 (17:40) 7.78 (17:50) 0 0 0 0 0
30-07-2020 35.2 (16:20) 21.8 (00:00) 28.5 13.61 (15:50) 8.33 (20:10) 0 0 0 0 0
29-07-2020 35.6 (17:40) 15.1 (00:00) 25.3 8.61 (16:30) 4.17 (12:20) 0 0 0 0 0
28-07-2020 32.5 (18:20) 18.3 (00:00) 25.4 8.89 (01:10) 5.83 (04:50) 0 0 0 0 0
27-07-2020 37.2 (16:30) 19.8 (00:00) 28.5 9.44 (18:00) 5.83 (18:50) 0 0 0 0 0
26-07-2020 33.9 (18:30) 15.4 (00:00) 24.7 8.33 (16:50) 4.44 (16:30) 0 0 0 0 0
25-07-2020 33 (18:00) 15 (00:00) 24 14.72 (16:10) 6.94 (17:20) 0 0 0 0 0
24-07-2020 31.2 (17:20) 15.8 (00:00) 23.5 11.67 (17:20) 5 (18:30) 0 0 0 0 0
23-07-2020 32.8 (17:00) 19.3 (00:00) 26 9.72 (16:10) 5.56 (20:30) 0 0 0 0 0
22-07-2020 30.5 (17:50) 15.8 (00:00) 23.2 7.78 (15:00) 4.72 (01:10) 0.6 0.6 0 0 0
21-07-2020 29.7 (14:00) 18.3 (00:00) 24 12.22 (19:30) 7.5 (19:30) 0 0 0 0 0
20-07-2020 34.1 (17:40) 18.4 (00:00) 26.2 11.39 (15:30) 6.67 (15:30) 0 0 0 0 0
19-07-2020 33.8 (16:10) 20.1 (00:00) 26.9 13.06 (14:30) 8.89 (18:30) 0 0 0 0 0
18-07-2020 31.6 (18:10) 10.4 (00:00) 21 6.39 (18:20) 3.89 (00:10) 0 0 0 0 0
17-07-2020 30.6 (17:40) 13.2 (00:00) 21.9 9.17 (18:40) 6.11 (19:50) 0 0 0 0 0
16-07-2020 30.8 (17:20) 13.3 (00:00) 22 8.61 (15:50) 4.17 (15:40) 0 0 0 0 0
15-07-2020 29 (18:20) 9.6 (00:00) 19.3 11.39 (18:00) 6.11 (20:10) 0 0 0 0 0

Gráficas

Temp. máximas Temp. mínimas Temp. medias Precipitaciones Rachas de viento máximas Velocidades máximas media en intervalos de 10 minutos

Datos horarios

Fecha y hora oficial Temperatura (ºC) Velocidad del viento (km/h) Dirección del viento Racha (km/h) Dirección de racha Precipitación (mm) Presión (hPa) Tendencia (hPa) Humedad (%)
2020-08-13 23:00:00 20.6 9 Oeste 11 Oeste 0 -- -- 35
2020-08-13 22:00:00 21.5 6 Noroeste 10 Noroeste 0 -- -- 34
2020-08-13 21:00:00 24.5 9 Noroeste 15 Noroeste 0 -- -- 30
2020-08-13 20:00:00 26.5 12 Noroeste 22 Noroeste 0 -- -- 25
2020-08-13 19:00:00 26.9 15 Noroeste 27 Oeste 0 -- -- 27
2020-08-13 18:00:00 27 16 Noroeste 30 Noroeste 0 -- -- 27
2020-08-13 17:00:00 26.8 13 Oeste 24 Noroeste 0 -- -- 30
2020-08-13 16:00:00 26 10 Noroeste 23 Noroeste 0 -- -- 31
2020-08-13 15:00:00 25 11 Noroeste 23 Noroeste 0 -- -- 34
2020-08-13 14:00:00 23.6 7 Noroeste 18 Oeste 0 -- -- 42
2020-08-13 13:00:00 21.7 8 Noroeste 17 Oeste 0 -- -- 53
2020-08-13 12:00:00 20.1 5 Nordeste 13 Oeste 0 -- -- 60
2020-08-13 11:00:00 18.1 4 Noroeste 10 Noroeste 0 -- -- 64
2020-08-13 10:00:00 16.8 3 Noroeste 9 Sudoeste 0 -- -- 73
2020-08-13 09:00:00 15.1 4 Sudoeste 9 Sudoeste 0 -- -- 78
2020-08-13 08:00:00 12.8 4 Sudoeste 10 Sudoeste 0 -- -- 92
2020-08-13 07:00:00 12.4 3 Oeste 9 Oeste 0 -- -- 92
2020-08-13 06:00:00 13 5 Sudoeste 13 Oeste 0 -- -- 90
2020-08-13 05:00:00 13.6 9 Sudoeste 10 Sudoeste 0 -- -- 90
2020-08-13 04:00:00 13.9 8 Sudoeste 12 Sudoeste 0 -- -- 88
2020-08-13 03:00:00 14.5 7 Sudoeste 10 Sudoeste 0 -- -- 85
2020-08-13 02:00:00 15.5 7 Oeste 10 Oeste 0 -- -- 81
2020-08-13 01:00:00 16.5 5 Sudoeste 12 Oeste 0 -- -- 75
2020-08-13 00:00:00 17.3 8 Oeste 15 Oeste 0 -- -- 70
2020-08-12 23:00:00 18.2 8 Sudoeste 13 Sudoeste 0 -- -- 63
2020-08-12 22:00:00 18.8 8 Sudoeste 17 Oeste 0 -- -- 60
2020-08-12 21:00:00 19.5 10 Oeste 30 Noroeste 0 -- -- 59
2020-08-12 20:00:00 21.2 25 Noroeste 41 Oeste 0 -- -- 53
2020-08-12 19:00:00 21.5 32 Noroeste 44 Noroeste 0 -- -- 55
2020-08-12 18:00:00 23.2 33 Noroeste 43 Noroeste 0 -- -- 44
2020-08-12 17:00:00 24.6 30 Oeste 40 Oeste 0 -- -- 41
2020-08-12 16:00:00 24.4 14 Noroeste 32 Oeste 0 -- -- 44
2020-08-12 15:00:00 23.6 18 Noroeste 30 Noroeste 0 -- -- 49
2020-08-12 14:00:00 24.3 17 Oeste 31 Noroeste 0 -- -- 49
2020-08-12 13:00:00 22.7 19 Noroeste 37 Noroeste 0 -- -- 54
2020-08-12 12:00:00 21.5 14 Oeste 19 Noroeste 0 -- -- 63
2020-08-12 11:00:00 19.5 14 Oeste 19 Oeste 0.2 -- -- 68
2020-08-12 10:00:00 18.3 8 Oeste 15 Oeste 0 -- -- 78
2020-08-12 09:00:00 17.3 3 Sur 13 Sur 0 -- -- 84
2020-08-12 08:00:00 13.7 5 Sudeste 11 Sur 0 -- -- 91
2020-08-12 07:00:00 13.5 3 Sur 18 Oeste 0 -- -- 89
2020-08-12 06:00:00 14.4 13 Sudoeste 19 Oeste 0 -- -- 86
2020-08-12 05:00:00 14.2 7 Oeste 18 Oeste 0 -- -- 86
2020-08-12 04:00:00 15.5 7 Oeste 22 Sudoeste 0 -- -- 77
2020-08-12 03:00:00 15.6 14 Sudoeste 21 Sudoeste 0 -- -- 74
2020-08-12 02:00:00 15.4 10 Sudoeste 20 Sur 0 -- -- 74
2020-08-12 01:00:00 15.2 10 Sur 27 Sur 0 -- -- 74
2020-08-12 00:00:00 14.7 10 Sur 19 Sur 0 -- -- 83
2020-08-11 23:00:00 15.3 7 Sudoeste 72 Oeste 12.2 -- -- 77
2020-08-11 22:00:00 18.7 13 Sudoeste 24 Sudoeste 0 -- -- 68
2020-08-11 21:00:00 18.3 12 Sudeste 27 Sudeste 0 -- -- 66
2020-08-11 20:00:00 19.2 18 Sudeste 27 Sudeste 0 -- -- 64
2020-08-11 19:00:00 19.3 18 Sudeste 26 Sudeste 0 -- -- 73
2020-08-11 18:00:00 19.1 15 Sudeste 25 Sudeste 0 -- -- 79
2020-08-11 17:00:00 19.4 14 Este 24 Sudeste 0 -- -- 79
2020-08-11 16:00:00 18.6 19 Sudeste 35 Sudeste 0 -- -- 85
2020-08-11 15:00:00 17.6 21 Sudeste 31 Este 0.8 -- -- 86
2020-08-11 14:00:00 16.3 8 Sur 46 Sudoeste 4.6 -- -- 87
2020-08-11 13:00:00 19.1 20 Sur 43 Sudoeste 0.4 -- -- 66
2020-08-11 12:00:00 20.6 26 Sudeste 37 Sur 0 -- -- 57
2020-08-11 11:00:00 19.6 32 Este 39 Sudeste 0 -- -- 70
2020-08-11 10:00:00 23.2 13 Sudeste 26 Sudeste 0 -- -- 51
2020-08-11 09:00:00 21.6 15 Sur 44 Sur 0 -- -- 55
2020-08-11 08:00:00 21.3 15 Sur 32 Sur 0 -- -- 53
2020-08-11 07:00:00 21.5 10 Sudeste 24 Sudeste 0 -- -- 51
2020-08-11 06:00:00 21.9 14 Sudeste 31 Sur 0 -- -- 50
2020-08-11 05:00:00 22.4 18 Sur 36 Sur 0 -- -- 50
2020-08-11 04:00:00 22.9 14 Sur 41 Sudeste 0 -- -- 47
2020-08-11 03:00:00 22.8 14 Sudeste 36 Sur 0 -- -- 48
2020-08-11 02:00:00 23.6 18 Sur 37 Sur 0 -- -- 47
2020-08-11 01:00:00 24.1 15 Sudeste 31 Sur 0 -- -- 43
2020-08-11 00:00:00 24.4 15 Sur 27 Sudeste 0 -- -- 42
2020-08-10 23:00:00 25.4 8 Sudeste 21 Sur 0 -- -- 41
2020-08-10 22:00:00 26.8 10 Sur 23 Sur 0 -- -- 39
2020-08-10 21:00:00 29.1 15 Sur 30 Sur 0 -- -- 34
2020-08-10 20:00:00 30.8 14 Sur 35 Sudoeste 0 -- -- 29
2020-08-10 19:00:00 29.6 17 Sudeste 48 Sudeste 0 -- -- 33
2020-08-10 18:00:00 31.6 11 Sur 34 Sur 0 -- -- 25
2020-08-10 17:00:00 32.9 16 Sur 34 Sudoeste 0 -- -- 25
2020-08-10 16:00:00 33.1 17 Sur 39 Sur 0 -- -- 23
2020-08-10 15:00:00 33.3 17 Sur 41 Sur 0 -- -- 24
2020-08-10 14:00:00 32.2 14 Sudoeste 27 Oeste 0 -- -- 27
2020-08-10 13:00:00 30 8 Norte 18 Sudoeste 0 -- -- 29
2020-08-10 12:00:00 28.7 9 Noroeste 19 Noroeste 0 -- -- 33
2020-08-10 11:00:00 26.7 12 Noroeste 19 Noroeste 0 -- -- 36
2020-08-10 10:00:00 27.7 6 Sur 14 Sur 0 -- -- 36
2020-08-10 09:00:00 22.1 6 Sur 10 Sudoeste 0 -- -- 45
2020-08-10 08:00:00 18.2 7 Sudoeste 12 Oeste 0 -- -- 52
2020-08-10 07:00:00 19.4 6 Sudoeste 9 Sudoeste 0 -- -- 46
2020-08-10 06:00:00 19.4 4 Sudoeste 15 Oeste 0 -- -- 47
2020-08-10 05:00:00 20.5 8 Sudoeste 15 Sudoeste 0 -- -- 44
2020-08-10 04:00:00 21.6 6 Sudoeste 16 Sudoeste 0 -- -- 41
2020-08-10 03:00:00 21.9 12 Sudoeste 16 Sudoeste 0 -- -- 41
2020-08-10 02:00:00 22.7 13 Sudoeste 18 Sudoeste 0 -- -- 40
2020-08-10 01:00:00 23.4 10 Sudoeste 18 Sudoeste 0 -- -- 39
2020-08-10 00:00:00 24.9 11 Sudoeste 16 Sudoeste 0 -- -- 35
2020-08-09 23:00:00 25.2 10 Sudoeste 17 Oeste 0 -- -- 31
2020-08-09 22:00:00 27.2 12 Oeste 27 Oeste 0 -- -- 28
2020-08-09 21:00:00 29.7 18 Oeste 37 Oeste 0 -- -- 25
2020-08-09 20:00:00 31.8 25 Oeste 36 Oeste 0 -- -- 23
2020-08-09 19:00:00 33.4 22 Oeste 40 Oeste 0 -- -- 23
2020-08-09 18:00:00 33.5 25 Oeste 42 Oeste 0 -- -- 23
2020-08-09 17:00:00 33.7 29 Oeste 47 Oeste 0 -- -- 24
2020-08-09 16:00:00 34.2 22 Oeste 41 Oeste 0 -- -- 25
2020-08-09 15:00:00 33.4 23 Oeste 38 Oeste 0 -- -- 28
2020-08-09 14:00:00 33 21 Oeste 38 Oeste 0 -- -- 29
2020-08-09 13:00:00 31.8 18 Oeste 31 Oeste 0 -- -- 30
2020-08-09 12:00:00 30.5 13 Oeste 24 Oeste 0 -- -- 34
2020-08-09 11:00:00 29 14 Oeste 22 Oeste 0 -- -- 37
2020-08-09 10:00:00 27.2 15 Oeste 21 Oeste 0 -- -- 41
2020-08-09 09:00:00 24.7 6 Sudoeste 10 Sudoeste 0 -- -- 44
2020-08-09 08:00:00 21.3 6 Sudoeste 9 Sudoeste 0 -- -- 54
2020-08-09 07:00:00 21.8 6 Sudoeste 14 Sudoeste 0 -- -- 52
2020-08-09 06:00:00 20.3 6 Sur 14 Sur 0 -- -- 56
2020-08-09 05:00:00 21.9 12 Sudoeste 16 Sudoeste 0 -- -- 52
2020-08-09 04:00:00 20.5 4 Sudeste 8 Sudoeste 0 -- -- 57
2020-08-09 03:00:00 23.7 4 Sudoeste 12 Sudoeste 0 -- -- 46
2020-08-09 02:00:00 22.5 4 Sudoeste 13 Sudoeste 0 -- -- 49
2020-08-09 01:00:00 23.9 12 Sudoeste 17 Sudoeste 0 -- -- 46
2020-08-09 00:00:00 24.7 10 Sudoeste 14 Sudoeste 0 -- -- 41
2020-08-08 23:00:00 26 10 Sudoeste 14 Sudoeste 0 -- -- 37
2020-08-08 22:00:00 26.8 5 Sudoeste 9 Sudoeste 0 -- -- 33
2020-08-08 21:00:00 30.8 4 Oeste 8 Sudoeste 0 -- -- 28
2020-08-08 20:00:00 32.1 4 Sudoeste 18 Oeste 0 -- -- 24
2020-08-08 19:00:00 32.3 9 Sudoeste 41 Sudoeste 0 -- -- 25
2020-08-08 18:00:00 31.3 21 Sudoeste 40 Sudoeste 0 -- -- 28
2020-08-08 17:00:00 28 35 Oeste 59 Sudoeste 0.4 -- -- 31
2020-08-08 16:00:00 35.7 22 Oeste 36 Sudoeste 0 -- -- 21
2020-08-08 15:00:00 33.4 8 Norte 19 Oeste 0 -- -- 26
2020-08-08 14:00:00 32.9 9 Norte 19 Nordeste 0 -- -- 27
2020-08-08 13:00:00 32.2 5 Oeste 16 Sudeste 0 -- -- 29
2020-08-08 12:00:00 31.2 9 Oeste 22 Oeste 0 -- -- 31
2020-08-08 11:00:00 29.8 14 Oeste 25 Oeste 0 -- -- 33
2020-08-08 10:00:00 27.3 9 Sudoeste 18 Sudoeste 0 -- -- 39
2020-08-08 09:00:00 25.3 5 Sudoeste 10 Sudoeste 0 -- -- 41
2020-08-08 08:00:00 22.7 7 Sudoeste 14 Sudoeste 0 -- -- 47
2020-08-08 07:00:00 21 9 Sudoeste 16 Sudoeste 0 -- -- 52
2020-08-08 06:00:00 20.3 8 Sudoeste 12 Sudoeste 0 -- -- 53
2020-08-08 05:00:00 22.4 8 Sudoeste 9 Sudoeste 0 -- -- 47
2020-08-08 04:00:00 23 6 Sudoeste 12 Sudoeste 0 -- -- 46
2020-08-08 03:00:00 23.2 7 Sudoeste 12 Sudoeste 0 -- -- 45
2020-08-08 02:00:00 23.4 4 Sur 14 Sudoeste 0 -- -- 44
2020-08-08 01:00:00 24.2 10 Sudoeste 13 Sudoeste 0 -- -- 43
2020-08-08 00:00:00 25.4 8 Sudoeste 14 Sudoeste 0 -- -- 40
2020-08-07 23:00:00 26.6 10 Sudoeste 15 Oeste 0 -- -- 36
2020-08-07 22:00:00 28 13 Oeste 28 Oeste 0 -- -- 33
2020-08-07 21:00:00 31.2 21 Oeste 36 Oeste 0 -- -- 29
2020-08-07 20:00:00 33.4 23 Oeste 39 Oeste 0 -- -- 27
2020-08-07 19:00:00 34.9 24 Oeste 39 Sudoeste 0 -- -- 26
2020-08-07 18:00:00 36.4 21 Sudoeste 36 Oeste 0 -- -- 21
2020-08-07 17:00:00 34.8 20 Oeste 33 Oeste 0 -- -- 26
2020-08-07 16:00:00 34.5 15 Noroeste 32 Oeste 0 -- -- 27
2020-08-07 15:00:00 34.5 16 Oeste 50 Oeste 0 -- -- 28
2020-08-07 14:00:00 33.4 15 Noroeste 26 Noroeste 0 -- -- 28
2020-08-07 13:00:00 32.5 11 Oeste 25 Oeste 0 -- -- 30
2020-08-07 12:00:00 31.7 14 Oeste 21 Oeste 0 -- -- 29
2020-08-07 11:00:00 29.1 4 Noroeste 10 Este 0 -- -- 34
2020-08-07 10:00:00 26.8 7 Sudeste 11 Sudeste 0 -- -- 39
2020-08-07 09:00:00 23.7 5 Sudeste 11 Sudoeste 0 -- -- 48
2020-08-07 08:00:00 22.9 9 Sudoeste 18 Sudoeste 0 -- -- 48
2020-08-07 07:00:00 22.1 9 Sudoeste 19 Sudoeste 0 -- -- 47
2020-08-07 06:00:00 22.1 15 Sudoeste 21 Sudoeste 0 -- -- 41
2020-08-07 05:00:00 22.4 12 Sudoeste 22 Oeste 0 -- -- 40
2020-08-07 04:00:00 22.1 7 Sudoeste 11 Sudoeste 0 -- -- 42
2020-08-07 03:00:00 23.2 5 Sudoeste 21 Este 0 -- -- 40
2020-08-07 02:00:00 24.7 6 Sudoeste 10 Sudoeste 0 -- -- 37
2020-08-07 01:00:00 24.5 9 Sudoeste 11 Sudoeste 0 -- -- 37
2020-08-07 00:00:00 24.7 3 Sudoeste 11 Oeste 0 -- -- 36
2020-08-06 23:00:00 27.1 4 Sudoeste 10 Sudoeste 0 -- -- 31
2020-08-06 22:00:00 30.1 7 Sudoeste 14 Sudoeste 0 -- -- 27
2020-08-06 21:00:00 32.7 9 Oeste 25 Oeste 0 -- -- 23
2020-08-06 20:00:00 34.8 13 Oeste 24 Oeste 0 -- -- 20
2020-08-06 19:00:00 35.7 9 Sur 26 Oeste 0 -- -- 20
2020-08-06 18:00:00 35.9 6 Sur 31 Sur 0 -- -- 19
2020-08-06 17:00:00 36.1 14 Sudoeste 27 Sur 0 -- -- 20
2020-08-06 16:00:00 36 14 Sudoeste 30 Sudoeste 0 -- -- 21
2020-08-06 15:00:00 33.8 8 Sur 25 Sur 0 -- -- 24
2020-08-06 14:00:00 34.8 12 Sur 31 Sudoeste 0 -- -- 23
2020-08-06 13:00:00 34.6 9 Sudoeste 30 Sur 0 -- -- 23
2020-08-06 12:00:00 32.2 13 Sudoeste 23 Sudoeste 0 -- -- 25
2020-08-06 11:00:00 31.2 3 Oeste 8 Nordeste 0 -- -- 27
2020-08-06 10:00:00 28.5 5 Nordeste 8 Nordeste 0 -- -- 28
2020-08-06 09:00:00 23.6 3 Noroeste 6 Oeste 0 -- -- 37
2020-08-06 08:00:00 20.2 4 Sudoeste 9 Oeste 0 -- -- 39
2020-08-06 07:00:00 19.8 0 Calma 17 Este 0 -- -- 39
2020-08-06 06:00:00 19.9 3 Nordeste 6 Este 0 -- -- 39
2020-08-06 05:00:00 20.8 6 Sur 9 Sur 0 -- -- 37
2020-08-06 04:00:00 20.3 5 Sudoeste 12 Oeste 0 -- -- 37
2020-08-06 03:00:00 21.4 6 Oeste 12 Oeste 0 -- -- 34
2020-08-06 02:00:00 21.7 7 Sudoeste 8 Sudoeste 0 -- -- 33
2020-08-06 01:00:00 24.8 3 Sudeste 9 Sudeste 0 -- -- 29
2020-08-06 00:00:00 24.8 6 Sudeste 9 Sudeste 0 -- -- 29
2020-08-05 23:00:00 25.8 2 Este 5 Norte 0 -- -- 27
2020-08-05 22:00:00 27.1 3 Norte 9 Norte 0 -- -- 25
2020-08-05 21:00:00 29.9 6 Nordeste 16 Norte 0 -- -- 22
2020-08-05 20:00:00 31.6 11 Norte 18 Norte 0 -- -- 20
2020-08-05 19:00:00 32.2 8 Nordeste 19 Noroeste 0 -- -- 20
2020-08-05 18:00:00 32.1 12 Noroeste 25 Noroeste 0 -- -- 20
2020-08-05 17:00:00 32.1 9 Norte 24 Norte 0 -- -- 20
2020-08-05 16:00:00 31.4 11 Norte 26 Norte 0 -- -- 21
2020-08-05 15:00:00 31 12 Noroeste 22 Nordeste 0 -- -- 22
2020-08-05 14:00:00 30.2 7 Norte 24 Norte 0 -- -- 23
2020-08-05 13:00:00 28.8 8 Noroeste 19 Norte 0 -- -- 23
2020-08-05 12:00:00 27.8 9 Este 18 Este 0 -- -- 27
2020-08-05 11:00:00 26.1 10 Nordeste 19 Este 0 -- -- 30
2020-08-05 10:00:00 24.4 7 Nordeste 11 Este 0 -- -- 33
2020-08-05 09:00:00 22.5 4 Sudeste 10 Sur 0 -- -- 36
2020-08-05 08:00:00 18 4 Sudeste 10 Sur 0 -- -- 46
2020-08-05 07:00:00 16.7 4 Sur 9 Sudeste 0 -- -- 48
2020-08-05 06:00:00 16.6 3 Sudeste 10 Sur 0 -- -- 51
2020-08-05 05:00:00 17.8 7 Sur 10 Sudeste 0 -- -- 47
2020-08-05 04:00:00 17.1 5 Sur 10 Sur 0 -- -- 49
2020-08-05 03:00:00 17.9 5 Sudeste 12 Sudeste 0 -- -- 47
2020-08-05 02:00:00 18.2 6 Sudeste 12 Sudeste 0 -- -- 45
2020-08-05 01:00:00 19.4 8 Sudeste 12 Sudeste 0 -- -- 42
2020-08-05 00:00:00 20.1 0 Calma 4 Norte 0 -- -- 40
2020-08-04 23:00:00 21.2 3 Norte 9 Norte 0 -- -- 37
2020-08-04 22:00:00 22.7 8 Norte 14 Nordeste 0 -- -- 34
2020-08-04 21:00:00 26.5 11 Norte 20 Norte 0 -- -- 29
2020-08-04 20:00:00 28.1 12 Norte 22 Norte 0 -- -- 26
2020-08-04 19:00:00 28.7 11 Norte 30 Noroeste 0 -- -- 25
2020-08-04 18:00:00 28.7 14 Noroeste 24 Noroeste 0 -- -- 26
2020-08-04 17:00:00 28.5 11 Norte 26 Norte 0 -- -- 28
2020-08-04 16:00:00 27.9 8 Norte 23 Norte 0 -- -- 29
2020-08-04 15:00:00 27.3 12 Nordeste 28 Norte 0 -- -- 32
2020-08-04 14:00:00 26.5 10 Nordeste 20 Nordeste 0 -- -- 34
2020-08-04 13:00:00 25.8 13 Este 25 Este 0 -- -- 36
2020-08-04 12:00:00 23.6 14 Este 22 Este 0 -- -- 41
2020-08-04 11:00:00 21.1 14 Nordeste 21 Nordeste 0 -- -- 48
2020-08-04 10:00:00 19.1 11 Nordeste 17 Nordeste 0 -- -- 54
2020-08-04 09:00:00 16.4 7 Este 9 Este 0 -- -- 63
2020-08-04 08:00:00 13.7 7 Sudeste 9 Sudeste 0 -- -- 72
2020-08-04 07:00:00 12.9 6 Este 9 Este 0 -- -- 76
2020-08-04 06:00:00 13.4 7 Este 8 Este 0 -- -- 73
2020-08-04 05:00:00 13.9 8 Este 11 Este 0 -- -- 70
2020-08-04 04:00:00 14.7 6 Nordeste 12 Nordeste 0 -- -- 64
2020-08-04 03:00:00 15.1 9 Nordeste 11 Nordeste 0 -- -- 57
2020-08-04 02:00:00 18.3 7 Este 12 Sudeste 0 -- -- 46
2020-08-04 01:00:00 19.5 10 Sudeste 15 Sudeste 0 -- -- 43
2020-08-04 00:00:00 20.4 6 Sudeste 8 Sudeste 0 -- -- 40
2020-08-03 23:00:00 21 4 Nordeste 13 Norte 0 -- -- 38
2020-08-03 22:00:00 22.1 10 Norte 19 Norte 0 -- -- 37
2020-08-03 21:00:00 24.9 15 Norte 22 Norte 0 -- -- 33
2020-08-03 20:00:00 26.3 12 Norte 23 Norte 0 -- -- 31
2020-08-03 19:00:00 27 5 Nordeste 19 Norte 0 -- -- 30
2020-08-03 18:00:00 26.9 12 Norte 25 Norte 0 -- -- 29
2020-08-03 17:00:00 26.4 11 Norte 22 Norte 0 -- -- 31
2020-08-03 16:00:00 26.1 9 Norte 21 Norte 0 -- -- 31
2020-08-03 15:00:00 25.2 8 Norte 22 Nordeste 0 -- -- 33
2020-08-03 14:00:00 23.1 10 Norte 20 Nordeste 0 -- -- 38
2020-08-03 13:00:00 22.5 9 Nordeste 23 Norte 0 -- -- 41
2020-08-03 12:00:00 21 10 Nordeste 20 Nordeste 0 -- -- 44
2020-08-03 11:00:00 18.9 7 Norte 13 Norte 0 -- -- 55
2020-08-03 10:00:00 17.1 6 Nordeste 10 Norte 0 -- -- 62
2020-08-03 09:00:00 15.5 4 Nordeste 7 Nordeste 0 -- -- 68
2020-08-03 08:00:00 14.2 4 Nordeste 8 Nordeste 0 -- -- 73
2020-08-03 07:00:00 13.5 4 Este 6 Este 0 -- -- 75
2020-08-03 06:00:00 14 4 Este 9 Este 0 -- -- 72
2020-08-03 05:00:00 15 7 Este 16 Nordeste 0 -- -- 70
2020-08-03 04:00:00 15.7 9 Este 14 Este 0 -- -- 68
2020-08-03 03:00:00 16.5 10 Nordeste 17 Nordeste 0 -- -- 66
2020-08-03 02:00:00 17.7 11 Este 17 Este 0 -- -- 61
2020-08-03 01:00:00 18.2 13 Este 18 Este 0 -- -- 57
2020-08-03 00:00:00 19.4 11 Sudeste 20 Este 0 -- -- 53
2020-08-02 23:00:00 20.2 10 Este 19 Este 0 -- -- 49
2020-08-02 22:00:00 22.2 15 Nordeste 30 Nordeste 0 -- -- 46
2020-08-02 21:00:00 25 18 Nordeste 26 Nordeste 0 -- -- 38
2020-08-02 20:00:00 26.5 14 Norte 27 Norte 0 -- -- 35
2020-08-02 19:00:00 27.7 12 Norte 22 Norte 0 -- -- 33
2020-08-02 18:00:00 27.6 13 Norte 24 Norte 0 -- -- 32
2020-08-02 17:00:00 27.2 18 Norte 27 Nordeste 0 -- -- 34
2020-08-02 16:00:00 27.7 11 Norte 24 Norte 0 -- -- 37
2020-08-02 15:00:00 26.3 9 Norte 18 Noroeste 0 -- -- 41
2020-08-02 14:00:00 25.2 10 Norte 23 Norte 0 -- -- 47
2020-08-02 13:00:00 23.5 13 Norte 24 Noroeste 0 -- -- 55
2020-08-02 12:00:00 21.9 11 Norte 17 Norte 0 -- -- 60
2020-08-02 11:00:00 19.7 6 Norte 13 Noroeste 0 -- -- 68
2020-08-02 10:00:00 18.1 4 Noroeste 8 Norte 0 -- -- 75
2020-08-02 09:00:00 16.1 5 Norte 8 Norte 0 -- -- 84
2020-08-02 08:00:00 13.6 4 Oeste 5 Noroeste 0 -- -- 87
2020-08-02 07:00:00 13.5 4 Noroeste 12 Norte 0 -- -- 90
2020-08-02 06:00:00 13.9 9 Norte 12 Norte 0 -- -- 87
2020-08-02 05:00:00 14.4 9 Noroeste 12 Noroeste 0 -- -- 81
2020-08-02 04:00:00 16.6 6 Sudoeste 9 Noroeste 0 -- -- 72
2020-08-02 03:00:00 17.4 9 Norte 16 Noroeste 0 -- -- 62
2020-08-02 02:00:00 20.4 12 Oeste 15 Oeste 0 -- -- 49
2020-08-02 01:00:00 22 12 Oeste 19 Sudoeste 0 -- -- 41
2020-08-02 00:00:00 23.2 9 Oeste 10 Oeste 0 -- -- 38
2020-08-01 23:00:00 23.7 6 Oeste 14 Noroeste 0 -- -- 36
2020-08-01 22:00:00 25.1 11 Noroeste 22 Noroeste 0 -- -- 33
2020-08-01 21:00:00 28.9 17 Noroeste 31 Noroeste 0 -- -- 28
2020-08-01 20:00:00 30.3 23 Noroeste 35 Noroeste 0 -- -- 26
2020-08-01 19:00:00 31.1 24 Noroeste 40 Noroeste 0 -- -- 28
2020-08-01 18:00:00 31.6 16 Noroeste 40 Noroeste 0 -- -- 28
2020-08-01 17:00:00 31.2 20 Noroeste 37 Oeste 0 -- -- 26
2020-08-01 16:00:00 30.9 20 Oeste 33 Noroeste 0 -- -- 23
2020-08-01 15:00:00 30 19 Noroeste 31 Oeste 0 -- -- 22
2020-08-01 14:00:00 29.1 14 Noroeste 30 Oeste 0 -- -- 29
2020-08-01 13:00:00 27.6 14 Noroeste 25 Noroeste 0 -- -- 32
2020-08-01 12:00:00 26.2 15 Oeste 23 Oeste 0 -- -- 37
2020-08-01 11:00:00 24.2 13 Oeste 24 Oeste 0 -- -- 42
2020-08-01 10:00:00 22.3 18 Oeste 24 Oeste 0 -- -- 47
2020-08-01 09:00:00 20.4 16 Oeste 25 Oeste 0 -- -- 50
2020-08-01 08:00:00 18.6 15 Oeste 23 Oeste 0 -- -- 52
2020-08-01 07:00:00 18.3 14 Oeste 21 Oeste 0 -- -- 51
2020-08-01 06:00:00 19.1 16 Sudoeste 22 Oeste 0 -- -- 46
2020-08-01 05:00:00 19.4 13 Oeste 22 Sudoeste 0 -- -- 44
2020-08-01 04:00:00 20.1 16 Sudoeste 23 Sudoeste 0 -- -- 39
2020-08-01 03:00:00 21.5 14 Sudoeste 21 Sudoeste 0 -- -- 36
2020-08-01 02:00:00 22.3 10 Sudoeste 16 Oeste 0 -- -- 34
2020-08-01 01:00:00 24.1 13 Sudoeste 19 Oeste 0 -- -- 32
2020-08-01 00:00:00 23.5 11 Sudoeste 17 Oeste 0 -- -- 32
2020-07-31 23:00:00 26.2 13 Sudoeste 22 Sudoeste 0 -- -- 27
2020-07-31 22:00:00 28.4 15 Sudoeste 26 Oeste 0 -- -- 23
2020-07-31 21:00:00 31.8 18 Oeste 31 Oeste 0 -- -- 18
2020-07-31 20:00:00 33.5 21 Oeste 31 Oeste 0 -- -- 18
2020-07-31 19:00:00 34.4 21 Oeste 37 Oeste 0 -- -- 15
2020-07-31 18:00:00 34.6 23 Oeste 39 Oeste 0 -- -- 16
2020-07-31 17:00:00 34.6 22 Oeste 39 Oeste 0 -- -- 17
2020-07-31 16:00:00 34 21 Oeste 36 Oeste 0 -- -- 20
2020-07-31 15:00:00 33.3 18 Noroeste 36 Oeste 0 -- -- 20
2020-07-31 14:00:00 32.9 14 Oeste 36 Noroeste 0 -- -- 22
2020-07-31 13:00:00 31.6 22 Oeste 32 Oeste 0 -- -- 22
2020-07-31 12:00:00 30.6 17 Oeste 27 Oeste 0 -- -- 26
2020-07-31 11:00:00 29.4 15 Oeste 25 Oeste 0 -- -- 32
2020-07-31 10:00:00 28.5 15 Oeste 22 Oeste 0 -- -- 33
2020-07-31 09:00:00 23.8 3 Sudeste 10 Oeste 0 -- -- 48
2020-07-31 08:00:00 18.6 0 Calma 8 Sur 0 -- -- 57
2020-07-31 07:00:00 19.1 3 Nordeste 11 Sudoeste 0 -- -- 55
2020-07-31 06:00:00 21.2 8 Sudoeste 13 Sudoeste 0 -- -- 49
2020-07-31 05:00:00 22.2 10 Sudoeste 17 Sudoeste 0 -- -- 48
2020-07-31 04:00:00 21.7 12 Sudoeste 18 Sudoeste 0 -- -- 51
2020-07-31 03:00:00 21.8 8 Sudoeste 15 Sudoeste 0 -- -- 52
2020-07-31 02:00:00 21.7 9 Sudoeste 13 Sudoeste 0 -- -- 53
2020-07-31 01:00:00 22.9 7 Oeste 13 Noroeste 0 -- -- 51
2020-07-31 00:00:00 24.1 7 Oeste 24 Noroeste 0 -- -- 46
2020-07-30 23:00:00 26.4 14 Sudoeste 22 Oeste 0 -- -- 39
2020-07-30 22:00:00 28.1 16 Oeste 35 Oeste 0 -- -- 35
2020-07-30 21:00:00 30.2 24 Oeste 43 Oeste 0 -- -- 31
2020-07-30 20:00:00 31.4 27 Oeste 46 Oeste 0 -- -- 29
2020-07-30 19:00:00 34.4 16 Sudoeste 43 Sudoeste 0 -- -- 24
2020-07-30 18:00:00 35.1 19 Sudoeste 44 Sudoeste 0 -- -- 20
2020-07-30 17:00:00 34.6 18 Sur 37 Sur 0 -- -- 22
2020-07-30 16:00:00 34.9 22 Sudoeste 49 Sur 0 -- -- 24
2020-07-30 15:00:00 34.5 21 Sur 46 Sur 0 -- -- 26
2020-07-30 14:00:00 33.5 19 Sur 44 Sur 0 -- -- 30
2020-07-30 13:00:00 33.2 18 Sur 41 Sudeste 0 -- -- 30
2020-07-30 12:00:00 33.1 19 Sur 41 Sur 0 -- -- 30
2020-07-30 11:00:00 31.7 15 Sur 30 Sur 0 -- -- 31
2020-07-30 10:00:00 29.2 5 Sur 18 Sudeste 0 -- -- 38
2020-07-30 09:00:00 26.1 6 Sudeste 17 Sur 0 -- -- 46
2020-07-30 08:00:00 23.2 11 Sur 18 Sur 0 -- -- 53
2020-07-30 07:00:00 21.8 5 Oeste 9 Sur 0 -- -- 58
2020-07-30 06:00:00 24.5 4 Sudoeste 20 Sur 0 -- -- 51
2020-07-30 05:00:00 24.2 3 Oeste 24 Sur 0 -- -- 53
2020-07-30 04:00:00 25.8 15 Sur 39 Sur 0 -- -- 50
2020-07-30 03:00:00 26.1 9 Sur 22 Sur 0 -- -- 43
2020-07-30 02:00:00 24.9 10 Sur 24 Sudeste 0 -- -- 37
2020-07-30 01:00:00 26.5 7 Sudoeste 11 Sudoeste 0 -- -- 35
2020-07-30 00:00:00 27.8 6 Noroeste 16 Sudoeste 0 -- -- 33
2020-07-29 23:00:00 29.2 6 Oeste 12 Sudoeste 0 -- -- 32
2020-07-29 22:00:00 31.4 6 Sur 13 Noroeste 0 -- -- 27
2020-07-29 21:00:00 32.7 11 Noroeste 21 Noroeste 0 -- -- 27
2020-07-29 20:00:00 33.9 8 Norte 15 Norte 0 -- -- 25
2020-07-29 19:00:00 33.9 9 Norte 14 Norte 0 -- -- 24
2020-07-29 18:00:00 34.2 4 Nordeste 23 Oeste 0 -- -- 26
2020-07-29 17:00:00 34.4 11 Norte 31 Norte 0 -- -- 25
2020-07-29 16:00:00 34.3 5 Sudoeste 20 Noroeste 0 -- -- 25
2020-07-29 15:00:00 32.9 8 Este 26 Nordeste 0 -- -- 29
2020-07-29 14:00:00 32.7 10 Norte 22 Nordeste 0 -- -- 30
2020-07-29 13:00:00 31.3 12 Nordeste 22 Nordeste 0 -- -- 37
2020-07-29 12:00:00 27.7 14 Nordeste 22 Nordeste 0 -- -- 48
2020-07-29 11:00:00 24.9 10 Nordeste 15 Este 0 -- -- 56
2020-07-29 10:00:00 21.7 9 Este 15 Este 0 -- -- 67
2020-07-29 09:00:00 18.6 9 Este 13 Este 0 -- -- 78
2020-07-29 08:00:00 15.6 4 Este 8 Sudeste 0 -- -- 89
2020-07-29 07:00:00 15.2 5 Sudeste 8 Este 0 -- -- 90
2020-07-29 06:00:00 15.4 5 Este 9 Este 0 -- -- 87
2020-07-29 05:00:00 16.3 5 Nordeste 15 Norte 0 -- -- 81
2020-07-29 04:00:00 17 8 Norte 12 Norte 0 -- -- 76
2020-07-29 03:00:00 18.7 5 Este 10 Este 0 -- -- 69
2020-07-29 02:00:00 19.7 11 Este 15 Este 0 -- -- 65
2020-07-29 01:00:00 20.7 11 Este 19 Este 0 -- -- 62
2020-07-29 00:00:00 23 13 Este 22 Nordeste 0 -- -- 55
2020-07-28 23:00:00 25.5 15 Nordeste 25 Nordeste 0 -- -- 47
2020-07-28 22:00:00 27 10 Norte 13 Norte 0 -- -- 35
2020-07-28 21:00:00 30.7 9 Norte 18 Norte 0 -- -- 30
2020-07-28 20:00:00 31.9 13 Norte 21 Norte 0 -- -- 28
2020-07-28 19:00:00 32.3 9 Norte 25 Noroeste 0 -- -- 29
2020-07-28 18:00:00 32.4 13 Noroeste 26 Noroeste 0 -- -- 29
2020-07-28 17:00:00 32 12 Noroeste 27 Norte 0 -- -- 31
2020-07-28 16:00:00 31.3 14 Norte 29 Noroeste 0 -- -- 34
2020-07-28 15:00:00 30.1 15 Noroeste 27 Noroeste 0 -- -- 37
2020-07-28 14:00:00 28.6 14 Noroeste 29 Noroeste 0 -- -- 43
2020-07-28 13:00:00 26.9 13 Noroeste 25 Noroeste 0 -- -- 47
2020-07-28 12:00:00 24.9 16 Noroeste 26 Noroeste 0 -- -- 53
2020-07-28 11:00:00 24 13 Oeste 22 Oeste 0 -- -- 56
2020-07-28 10:00:00 21.6 13 Oeste 22 Oeste 0 -- -- 64
2020-07-28 09:00:00 19.8 17 Oeste 24 Oeste 0 -- -- 71
2020-07-28 08:00:00 19 12 Oeste 22 Oeste 0 -- -- 72
2020-07-28 07:00:00 18.5 9 Sudoeste 18 Oeste 0 -- -- 71
2020-07-28 06:00:00 19.5 13 Oeste 31 Oeste 0 -- -- 66
2020-07-28 05:00:00 21.1 20 Oeste 31 Oeste 0 -- -- 61
2020-07-28 04:00:00 21.8 17 Oeste 28 Oeste 0 -- -- 56
2020-07-28 03:00:00 23.1 15 Oeste 30 Sudoeste 0 -- -- 51
2020-07-28 02:00:00 24 14 Oeste 32 Oeste 0 -- -- 47
2020-07-28 01:00:00 25.3 19 Oeste 29 Sudoeste 0 -- -- 43
2020-07-28 00:00:00 26.3 16 Oeste 24 Oeste 0 -- -- 37
2020-07-27 23:00:00 27.6 11 Sudoeste 14 Sudoeste 0 -- -- 30
2020-07-27 22:00:00 29.4 9 Oeste 19 Sudoeste 0 -- -- 27
2020-07-27 21:00:00 33.1 15 Sudoeste 28 Sudoeste 0 -- -- 22
2020-07-27 20:00:00 35 18 Sudoeste 34 Oeste 0 -- -- 19
2020-07-27 19:00:00 36.2 20 Oeste 34 Sudoeste 0 -- -- 20
2020-07-27 18:00:00 37.1 19 Oeste 34 Oeste 0 -- -- 21
2020-07-27 17:00:00 37 15 Oeste 32 Oeste 0 -- -- 20
2020-07-27 16:00:00 36.7 13 Oeste 28 Noroeste 0 -- -- 21
2020-07-27 15:00:00 35.9 15 Norte 26 Norte 0 -- -- 21
2020-07-27 14:00:00 35.8 8 Este 18 Noroeste 0 -- -- 21
2020-07-27 13:00:00 34.4 13 Noroeste 22 Noroeste 0 -- -- 22
2020-07-27 12:00:00 33 9 Noroeste 15 Oeste 0 -- -- 23
2020-07-27 09:00:00 -- -- -- -- -- -- -- -- --
2020-07-27 08:00:00 -- -- -- -- -- -- -- -- --
2020-07-27 07:00:00 -- -- -- -- -- -- -- -- --
2020-07-27 06:00:00 20.7 8 Oeste 14 Oeste 0 -- -- 41
2020-07-27 05:00:00 20.1 9 Oeste 12 Oeste 0 -- -- 41
2020-07-27 04:00:00 21.3 4 Sudoeste 9 Sur 0 -- -- 37
2020-07-27 03:00:00 23.2 5 Sur 9 Sur 0 -- -- 34
2020-07-27 02:00:00 23.3 6 Sur 12 Sudeste 0 -- -- 34
2020-07-27 01:00:00 24.5 7 Sudeste 11 Sudeste 0 -- -- 31
2020-07-27 00:00:00 25.1 6 Sur 9 Sur 0 -- -- 31
2020-07-26 23:00:00 26.8 4 Sudeste 6 Sudeste 0 -- -- 29
2020-07-26 22:00:00 27.9 5 Norte 10 Norte 0 -- -- 27
2020-07-26 21:00:00 31.6 9 Norte 19 Norte 0 -- -- 24
2020-07-26 20:00:00 33.1 9 Noroeste 21 Noroeste 0 -- -- 22
2020-07-26 19:00:00 33.7 12 Norte 21 Oeste 0 -- -- 23
2020-07-26 18:00:00 33.4 12 Oeste 23 Noroeste 0 -- -- 24
2020-07-26 17:00:00 32.8 10 Noroeste 30 Noroeste 0 -- -- 25
2020-07-26 16:00:00 31.9 15 Noroeste 22 Norte 0 -- -- 26
2020-07-26 15:00:00 31 10 Norte 21 Norte 0 -- -- 28
2020-07-26 14:00:00 29.6 12 Norte 20 Norte 0 -- -- 30
2020-07-26 13:00:00 28.3 9 Norte 19 Norte 0 -- -- 32
2020-07-26 12:00:00 26.6 7 Nordeste 17 Nordeste 0 -- -- 35
2020-07-26 11:00:00 26 7 Nordeste 12 Nordeste 0 -- -- 34
2020-07-26 10:00:00 23.4 3 Nordeste 6 Norte 0 -- -- 44
2020-07-26 09:00:00 20.3 4 Noroeste 6 Noroeste 0 -- -- 52
2020-07-26 08:00:00 17.3 6 Sudoeste 8 Sudoeste 0 -- -- 54
2020-07-26 07:00:00 15.5 6 Oeste 11 Sudoeste 0 -- -- 57
2020-07-26 06:00:00 16.7 8 Sudoeste 13 Sudoeste 0 -- -- 54
2020-07-26 05:00:00 17.8 9 Sudoeste 14 Sudoeste 0 -- -- 50
2020-07-26 04:00:00 18.3 11 Sudoeste 14 Sudoeste 0 -- -- 48
2020-07-26 03:00:00 20.3 8 Oeste 11 Oeste 0 -- -- 43
2020-07-26 02:00:00 21.1 8 Oeste 12 Oeste 0 -- -- 40
2020-07-26 01:00:00 22.2 9 Oeste 19 Noroeste 0 -- -- 36
2020-07-26 00:00:00 23 14 Oeste 18 Oeste 0 -- -- 32
2020-07-25 23:00:00 24.5 12 Oeste 15 Oeste 0 -- -- 31
2020-07-25 22:00:00 26.3 10 Oeste 25 Noroeste 0 -- -- 29
2020-07-25 21:00:00 30.1 20 Noroeste 30 Noroeste 0 -- -- 24
2020-07-25 20:00:00 31.5 22 Noroeste 36 Oeste 0 -- -- 24
2020-07-25 19:00:00 32.5 21 Noroeste 33 Noroeste 0 -- -- 23
2020-07-25 18:00:00 33 21 Noroeste 39 Noroeste 0 -- -- 23
2020-07-25 17:00:00 32.6 22 Noroeste 53 Oeste 0 -- -- 24
2020-07-25 16:00:00 32.5 23 Noroeste 42 Oeste 0 -- -- 25
2020-07-25 15:00:00 32.4 15 Oeste 30 Oeste 0 -- -- 23
2020-07-25 14:00:00 31.7 18 Oeste 33 Noroeste 0 -- -- 24
2020-07-25 13:00:00 30.8 14 Oeste 24 Oeste 0 -- -- 26
2020-07-25 12:00:00 29.2 5 Nordeste 14 Este 0 -- -- 29
2020-07-25 11:00:00 26.1 5 Nordeste 10 Este 0 -- -- 37
2020-07-25 10:00:00 22.9 4 Nordeste 8 Nordeste 0 -- -- 45
2020-07-25 09:00:00 20.3 0 Calma 4 Oeste 0 -- -- 53
2020-07-25 08:00:00 15.6 2 Sur 6 Sudeste 0 -- -- 66
2020-07-25 07:00:00 15.2 2 Sur 3 Sur 0 -- -- 71
2020-07-25 06:00:00 15.8 0 Calma 7 Noroeste 0 -- -- 67
2020-07-25 05:00:00 16 6 Noroeste 9 Noroeste 0 -- -- 62
2020-07-25 04:00:00 17.4 6 Nordeste 13 Sur 0 -- -- 52
2020-07-25 03:00:00 19.9 7 Sur 13 Sur 0 -- -- 48
2020-07-25 02:00:00 20.6 7 Sur 12 Sur 0 -- -- 46
2020-07-25 01:00:00 21.1 7 Sudeste 16 Sudeste 0 -- -- 43
2020-07-25 00:00:00 22 8 Este 14 Nordeste 0 -- -- 37
2020-07-24 23:00:00 22.9 6 Norte 12 Norte 0 -- -- 35
2020-07-24 22:00:00 25.1 11 Norte 17 Norte 0 -- -- 30
2020-07-24 21:00:00 28.7 12 Norte 22 Norte 0 -- -- 25
2020-07-24 20:00:00 30 14 Nordeste 27 Norte 0 -- -- 24
2020-07-24 19:00:00 30.8 17 Norte 28 Noroeste 0 -- -- 23
2020-07-24 18:00:00 31 16 Norte 42 Noroeste 0 -- -- 22
2020-07-24 17:00:00 30.9 12 Noroeste 28 Noroeste 0 -- -- 23
2020-07-24 16:00:00 30.7 14 Noroeste 23 Norte 0 -- -- 26
2020-07-24 15:00:00 28.8 9 Norte 22 Norte 0 -- -- 32
2020-07-24 14:00:00 28.1 11 Nordeste 22 Nordeste 0 -- -- 34
2020-07-24 13:00:00 26.3 11 Nordeste 23 Nordeste 0 -- -- 39
2020-07-24 12:00:00 24.2 12 Nordeste 22 Nordeste 0 -- -- 50
2020-07-24 11:00:00 22.1 7 Norte 14 Nordeste 0 -- -- 60
2020-07-24 10:00:00 20.2 6 Nordeste 9 Nordeste 0 -- -- 67
2020-07-24 09:00:00 18.4 6 Nordeste 9 Nordeste 0 -- -- 73
2020-07-24 08:00:00 16.4 0 Calma 6 Sur 0 -- -- 74
2020-07-24 07:00:00 16 2 Este 5 Norte 0 -- -- 78
2020-07-24 06:00:00 16.3 6 Noroeste 9 Norte 0 -- -- 69
2020-07-24 05:00:00 17.7 8 Oeste 16 Noroeste 0 -- -- 49
2020-07-24 04:00:00 19.3 5 Sur 10 Sudoeste 0 -- -- 46
2020-07-24 03:00:00 20.3 6 Oeste 13 Oeste 0 -- -- 42
2020-07-24 02:00:00 21.4 8 Oeste 13 Noroeste 0 -- -- 41
2020-07-24 01:00:00 22.4 11 Noroeste 18 Noroeste 0 -- -- 40
2020-07-24 00:00:00 24.4 12 Norte 25 Noroeste 0 -- -- 37
2020-07-23 23:00:00 25 13 Oeste 18 Noroeste 0 -- -- 38
2020-07-23 22:00:00 27.1 10 Noroeste 22 Noroeste 0 -- -- 34
2020-07-23 21:00:00 30.5 15 Noroeste 28 Noroeste 0 -- -- 29
2020-07-23 20:00:00 31.8 17 Noroeste 31 Noroeste 0 -- -- 29
2020-07-23 19:00:00 32.3 19 Noroeste 28 Noroeste 0 -- -- 28
2020-07-23 18:00:00 31.4 12 Oeste 28 Noroeste 0 -- -- 30
2020-07-23 17:00:00 32.8 17 Oeste 35 Noroeste 0 -- -- 29
2020-07-23 16:00:00 32 13 Noroeste 26 Oeste 0 -- -- 28
2020-07-23 15:00:00 31 14 Noroeste 28 Noroeste 0 -- -- 32
2020-07-23 14:00:00 30.8 12 Norte 30 Norte 0 -- -- 32
2020-07-23 13:00:00 29.6 10 Nordeste 20 Norte 0 -- -- 36
2020-07-23 12:00:00 28.2 9 Norte 18 Norte 0 -- -- 39
2020-07-23 11:00:00 26.4 8 Oeste 19 Oeste 0 -- -- 45
2020-07-23 10:00:00 24.1 13 Oeste 26 Oeste 0 -- -- 53
2020-07-23 09:00:00 22 19 Oeste 27 Oeste 0 -- -- 59
2020-07-23 08:00:00 19.9 14 Sudoeste 24 Oeste 0 -- -- 64
2020-07-23 07:00:00 19.5 13 Sudoeste 25 Sudoeste 0 -- -- 64
2020-07-23 06:00:00 19.9 17 Oeste 24 Oeste 0 -- -- 62
2020-07-23 05:00:00 20.5 14 Sudoeste 21 Sudoeste 0 -- -- 59
2020-07-23 04:00:00 20.3 8 Oeste 20 Sudoeste 0 -- -- 57
2020-07-23 03:00:00 22.5 12 Sudoeste 18 Sudoeste 0 -- -- 49
2020-07-23 02:00:00 22.2 6 Sudoeste 21 Oeste 0 -- -- 45
2020-07-23 01:00:00 23.4 6 Sur 10 Sur 0 -- -- 44
2020-07-23 00:00:00 23.2 6 Sur 11 Sudoeste 0 -- -- 46
2020-07-22 23:00:00 23.7 5 Sur 17 Sudeste 0 -- -- 44
2020-07-22 22:00:00 26.4 0 Calma 10 Norte 0 -- -- 33
2020-07-22 21:00:00 28.6 9 Nordeste 17 Nordeste 0 -- -- 30
2020-07-22 20:00:00 30 10 Norte 22 Noroeste 0 -- -- 30
2020-07-22 19:00:00 30.3 13 Noroeste 25 Noroeste 0 -- -- 30
2020-07-22 18:00:00 30.4 7 Noroeste 26 Noroeste 0 -- -- 32
2020-07-22 17:00:00 29.3 9 Norte 27 Noroeste 0 -- -- 36
2020-07-22 16:00:00 29.4 7 Norte 26 Este 0 -- -- 34
2020-07-22 15:00:00 29.2 11 Noroeste 28 Oeste 0 -- -- 35
2020-07-22 14:00:00 27.8 11 Oeste 21 Oeste 0 -- -- 39
2020-07-22 13:00:00 26.7 8 Oeste 20 Oeste 0 -- -- 41
2020-07-22 12:00:00 25.2 4 Norte 15 Sudoeste 0 -- -- 46
2020-07-22 11:00:00 23.5 4 Sudoeste 13 Sudeste 0 -- -- 55
2020-07-22 10:00:00 21.6 3 Nordeste 13 Noroeste 0 -- -- 67
2020-07-22 09:00:00 18.6 9 Noroeste 11 Noroeste 0 -- -- 79
2020-07-22 08:00:00 16.4 0 Calma 7 Norte 0 -- -- 89
2020-07-22 07:00:00 16.5 4 Noroeste 11 Sudeste 0 -- -- 86
2020-07-22 06:00:00 17.3 4 Sur 15 Norte 0.2 -- -- 87
2020-07-22 05:00:00 17.8 9 Sur 15 Sur 0.2 -- -- 84
2020-07-22 04:00:00 17.8 5 Sudoeste 12 Sudoeste 0 -- -- 83
2020-07-22 03:00:00 17.9 8 Norte 13 Norte 0 -- -- 81
2020-07-22 02:00:00 18.6 7 Este 26 Sudoeste 0 -- -- 81
2020-07-22 01:00:00 19.4 14 Sudoeste 23 Sudoeste 0.2 -- -- 74
2020-07-22 00:00:00 20.9 3 Sur 19 Este 0 -- -- 62
2020-07-21 23:00:00 21.5 15 Sudeste 22 Este 0 -- -- 56
2020-07-21 22:00:00 21.5 9 Este 12 Norte 0 -- -- 50
2020-07-21 21:00:00 23 4 Sur 37 Oeste 0 -- -- 47
2020-07-21 20:00:00 24 22 Oeste 44 Oeste 0 -- -- 42
2020-07-21 19:00:00 25.3 15 Sudoeste 38 Sudoeste 0 -- -- 40
2020-07-21 18:00:00 27.5 16 Sudoeste 36 Sudoeste 0 -- -- 38
2020-07-21 17:00:00 28.4 17 Oeste 28 Oeste 0 -- -- 36
2020-07-21 16:00:00 27.4 23 Oeste 35 Oeste 0 -- -- 38
2020-07-21 15:00:00 27.1 18 Noroeste 24 Oeste 0 -- -- 39
2020-07-21 14:00:00 29.7 14 Norte 24 Noroeste 0 -- -- 33
2020-07-21 13:00:00 28.4 9 Norte 16 Nordeste 0 -- -- 34
2020-07-21 12:00:00 25.8 7 Norte 14 Noroeste 0 -- -- 41
2020-07-21 11:00:00 22.9 10 Noroeste 24 Noroeste 0 -- -- 53
2020-07-21 10:00:00 21.2 15 Noroeste 40 Noroeste 0 -- -- 58
2020-07-21 09:00:00 21.3 4 Sudoeste 16 Oeste 0 -- -- 34
2020-07-21 08:00:00 18.9 6 Norte 14 Noroeste 0 -- -- 32
2020-07-21 07:00:00 18.6 2 Norte 8 Sudeste 0 -- -- 32
2020-07-21 06:00:00 20.8 5 Sur 9 Sur 0 -- -- 29
2020-07-21 05:00:00 22.2 8 Sur 14 Sudeste 0 -- -- 27
2020-07-21 04:00:00 21 3 Sur 9 Sudoeste 0 -- -- 29
2020-07-21 03:00:00 23 4 Sudoeste 10 Sudoeste 0 -- -- 25
2020-07-21 02:00:00 23.2 5 Sudoeste 12 Sudoeste 0 -- -- 26
2020-07-21 01:00:00 23.6 8 Sudoeste 13 Sudoeste 0 -- -- 25
2020-07-21 00:00:00 25.4 6 Sudoeste 10 Noroeste 0 -- -- 23
2020-07-20 23:00:00 26.2 8 Oeste 10 Noroeste 0 -- -- 22
2020-07-20 22:00:00 27.7 7 Oeste 10 Oeste 0 -- -- 21
2020-07-20 21:00:00 31.2 11 Noroeste 18 Noroeste 0 -- -- 18
2020-07-20 20:00:00 32.7 14 Noroeste 28 Noroeste 0 -- -- 18
2020-07-20 19:00:00 33.6 6 Norte 27 Oeste 0 -- -- 16
2020-07-20 18:00:00 34 11 Noroeste 30 Oeste 0 -- -- 15
2020-07-20 17:00:00 34 15 Noroeste 31 Oeste 0 -- -- 14
2020-07-20 16:00:00 33.2 17 Oeste 41 Oeste 0 -- -- 12
2020-07-20 15:00:00 32.9 22 Oeste 41 Oeste 0 -- -- 15
2020-07-20 14:00:00 31.9 15 Oeste 29 Oeste 0 -- -- 17
2020-07-20 13:00:00 30.8 11 Oeste 29 Oeste 0 -- -- 18
2020-07-20 12:00:00 29.7 11 Sudoeste 22 Sudoeste 0 -- -- 27
2020-07-20 11:00:00 27.2 7 Noroeste 16 Oeste 0 -- -- 37
2020-07-20 10:00:00 25.4 8 Oeste 12 Oeste 0 -- -- 40
2020-07-20 09:00:00 22.9 0 Calma 6 Nordeste 0 -- -- 44
2020-07-20 08:00:00 19.4 0 Calma 12 Sudoeste 0 -- -- 52
2020-07-20 07:00:00 19.8 9 Sudoeste 15 Sudoeste 0 -- -- 50
2020-07-20 06:00:00 20.4 10 Sudoeste 17 Sudoeste 0 -- -- 45
2020-07-20 05:00:00 20.4 14 Sudoeste 19 Sudoeste 0 -- -- 43
2020-07-20 04:00:00 20.9 12 Sudoeste 23 Sudoeste 0 -- -- 39
2020-07-20 03:00:00 21.9 17 Sudoeste 26 Sudoeste 0 -- -- 32
2020-07-20 02:00:00 22.5 18 Sudoeste 26 Sudoeste 0 -- -- 27
2020-07-20 01:00:00 23 16 Sudoeste 24 Sudoeste 0 -- -- 26
2020-07-20 00:00:00 24.2 13 Sudoeste 22 Sudoeste 0 -- -- 26
2020-07-19 23:00:00 25.1 12 Sudoeste 22 Oeste 0 -- -- 25
2020-07-19 22:00:00 27.4 16 Sudoeste 28 Oeste 0 -- -- 22
2020-07-19 21:00:00 30.4 21 Oeste 34 Sudoeste 0 -- -- 19
2020-07-19 20:00:00 32 22 Oeste 38 Oeste 0 -- -- 17
2020-07-19 19:00:00 32.9 31 Oeste 45 Oeste 0 -- -- 16
2020-07-19 18:00:00 33.2 30 Oeste 46 Oeste 0 -- -- 17
2020-07-19 17:00:00 33.7 31 Oeste 45 Oeste 0 -- -- 18
2020-07-19 16:00:00 33.6 26 Oeste 41 Oeste 0 -- -- 22
2020-07-19 15:00:00 33.2 21 Oeste 47 Oeste 0 -- -- 25
2020-07-19 14:00:00 32.8 27 Oeste 41 Oeste 0 -- -- 23
2020-07-19 13:00:00 32.9 16 Oeste 36 Noroeste 0 -- -- 26
2020-07-19 12:00:00 32.1 15 Oeste 26 Oeste 0 -- -- 28
2020-07-19 11:00:00 31.3 6 Oeste 12 Oeste 0 -- -- 28
2020-07-19 10:00:00 28.9 3 Noroeste 12 Oeste 0 -- -- 27
2020-07-19 09:00:00 26.3 2 Nordeste 12 Oeste 0 -- -- 30
2020-07-19 08:00:00 22.8 9 Sudoeste 20 Sudoeste 0 -- -- 34
2020-07-19 07:00:00 20.3 12 Sudoeste 19 Sudoeste 0 -- -- 39
2020-07-19 06:00:00 20.1 13 Sudoeste 20 Sudoeste 0 -- -- 34
2020-07-19 05:00:00 22.3 5 Sur 11 Sur 0 -- -- 30
2020-07-19 04:00:00 22.4 5 Sur 10 Sur 0 -- -- 29
2020-07-19 03:00:00 22.3 6 Sur 11 Sudeste 0 -- -- 29
2020-07-19 02:00:00 22.9 5 Sur 11 Sur 0 -- -- 27
2020-07-19 01:00:00 23.2 7 Sur 12 Sur 0 -- -- 28
2020-07-19 00:00:00 23.4 6 Sur 9 Sur 0 -- -- 27
2020-07-18 23:00:00 25.2 5 Sudeste 6 Sudeste 0 -- -- 25
2020-07-18 22:00:00 26.9 2 Nordeste 10 Norte 0 -- -- 24
2020-07-18 21:00:00 29.8 8 Norte 19 Norte 0 -- -- 21
2020-07-18 20:00:00 31 7 Norte 20 Noroeste 0 -- -- 19
2020-07-18 19:00:00 31.4 13 Norte 23 Noroeste 0 -- -- 17
2020-07-18 18:00:00 31.4 13 Norte 22 Norte 0 -- -- 16
2020-07-18 17:00:00 31.3 10 Noroeste 19 Norte 0 -- -- 15
2020-07-18 16:00:00 30.1 9 Noroeste 20 Noroeste 0 -- -- 17
2020-07-18 15:00:00 28.9 7 Nordeste 18 Nordeste 0 -- -- 20
2020-07-18 14:00:00 27.1 8 Norte 17 Nordeste 0 -- -- 23
2020-07-18 13:00:00 25.5 8 Norte 16 Norte 0 -- -- 29
2020-07-18 12:00:00 23 6 Nordeste 11 Nordeste 0 -- -- 37
2020-07-18 11:00:00 19.5 4 Este 9 Nordeste 0 -- -- 53
2020-07-18 10:00:00 16.6 2 Sudoeste 11 Nordeste 0 -- -- 65
2020-07-18 09:00:00 13.8 6 Nordeste 9 Nordeste 0 -- -- 76
2020-07-18 08:00:00 12.3 3 Norte 5 Noroeste 0 -- -- 74
2020-07-18 07:00:00 10.5 2 Nordeste 5 Este 0 -- -- 75
2020-07-18 06:00:00 11.3 3 Nordeste 6 Norte 0 -- -- 71
2020-07-18 05:00:00 12 0 Calma 5 Oeste 0 -- -- 64
2020-07-18 04:00:00 13.4 3 Sudeste 9 Este 0 -- -- 60
2020-07-18 03:00:00 14.3 4 Este 12 Este 0 -- -- 59
2020-07-18 02:00:00 16 10 Este 15 Sudeste 0 -- -- 50
2020-07-18 01:00:00 18.2 13 Sudeste 19 Este 0 -- -- 46
2020-07-18 00:00:00 19.3 8 Este 18 Nordeste 0 -- -- 36
2020-07-17 23:00:00 22.2 15 Este 25 Este 0 -- -- 28
2020-07-17 22:00:00 24.1 13 Nordeste 24 Nordeste 0 -- -- 23
2020-07-17 21:00:00 27.3 17 Nordeste 33 Nordeste 0 -- -- 21
2020-07-17 20:00:00 29 20 Nordeste 29 Norte 0 -- -- 19
2020-07-17 19:00:00 30.2 16 Nordeste 33 Norte 0 -- -- 18
2020-07-17 18:00:00 30.4 19 Norte 32 Norte 0 -- -- 18
2020-07-17 17:00:00 30.2 15 Nordeste 25 Nordeste 0 -- -- 19
2020-07-17 16:00:00 29.5 10 Norte 24 Norte 0 -- -- 20
2020-07-17 15:00:00 28.5 14 Nordeste 29 Nordeste 0 -- -- 22
2020-07-17 14:00:00 27.1 14 Nordeste 24 Nordeste 0 -- -- 26
2020-07-17 13:00:00 25.7 14 Nordeste 21 Nordeste 0 -- -- 34
2020-07-17 12:00:00 23.2 10 Nordeste 19 Nordeste 0 -- -- 39
2020-07-17 11:00:00 21.4 9 Nordeste 15 Nordeste 0 -- -- 39
2020-07-17 10:00:00 18.3 6 Nordeste 11 Este 0 -- -- 46
2020-07-17 09:00:00 16.1 5 Nordeste 8 Nordeste 0 -- -- 53
2020-07-17 08:00:00 14.1 2 Norte 4 Norte 0 -- -- 56
2020-07-17 07:00:00 13.3 2 Norte 5 Este 0 -- -- 56
2020-07-17 06:00:00 14.6 5 Este 5 Este 0 -- -- 53
2020-07-17 05:00:00 14.8 3 Sudeste 12 Sudeste 0 -- -- 53
2020-07-17 04:00:00 15.1 8 Sudeste 13 Este 0 -- -- 53
2020-07-17 03:00:00 15.9 8 Nordeste 21 Este 0 -- -- 51
2020-07-17 02:00:00 17.3 11 Este 21 Este 0 -- -- 52
2020-07-17 01:00:00 18.4 15 Este 19 Este 0 -- -- 54
2020-07-17 00:00:00 20.1 13 Este 19 Este 0 -- -- 52
2020-07-16 23:00:00 23.3 13 Este 21 Nordeste 0 -- -- 39
2020-07-16 22:00:00 25.2 11 Nordeste 17 Norte 0 -- -- 28
2020-07-16 21:00:00 29 12 Norte 18 Norte 0 -- -- 21
2020-07-16 20:00:00 30.1 15 Norte 22 Norte 0 -- -- 20
2020-07-16 19:00:00 30.6 8 Nordeste 25 Norte 0 -- -- 21
2020-07-16 18:00:00 30.6 15 Nordeste 24 Norte 0 -- -- 22
2020-07-16 17:00:00 30.4 13 Norte 22 Nordeste 0 -- -- 23
2020-07-16 16:00:00 30.1 12 Norte 31 Norte 0 -- -- 25
2020-07-16 15:00:00 29.3 12 Norte 21 Noroeste 0 -- -- 27
2020-07-16 14:00:00 28.2 8 Norte 19 Este 0 -- -- 28
2020-07-16 13:00:00 27 8 Nordeste 18 Este 0 -- -- 33
2020-07-16 12:00:00 24.4 10 Nordeste 21 Nordeste 0 -- -- 37
2020-07-16 11:00:00 22.2 7 Nordeste 16 Nordeste 0 -- -- 41
2020-07-16 10:00:00 19.4 9 Este 15 Este 0 -- -- 45
2020-07-16 09:00:00 16.4 9 Este 13 Este 0 -- -- 51
2020-07-16 08:00:00 14.5 5 Nordeste 8 Este 0 -- -- 58
2020-07-16 07:00:00 13.3 8 Sudeste 11 Sudeste 0 -- -- 62
2020-07-16 06:00:00 13.3 6 Sudeste 8 Sudeste 0 -- -- 64
2020-07-16 05:00:00 14.5 5 Este 6 Este 0 -- -- 63
2020-07-16 04:00:00 15 3 Sudeste 9 Este 0 -- -- 61
2020-07-16 03:00:00 15.3 8 Este 14 Este 0 -- -- 61
2020-07-16 02:00:00 16.2 7 Nordeste 12 Este 0 -- -- 57
2020-07-16 01:00:00 16.9 11 Este 17 Este 0 -- -- 54
2020-07-16 00:00:00 18.8 13 Sudeste 17 Sudeste 0 -- -- 50
2020-07-15 23:00:00 21.1 9 Nordeste 22 Nordeste 0 -- -- 44
2020-07-15 22:00:00 23.5 18 Nordeste 27 Nordeste 0 -- -- 40
2020-07-15 21:00:00 26.3 17 Nordeste 33 Nordeste 0 -- -- 28
2020-07-15 20:00:00 27.9 20 Nordeste 30 Nordeste 0 -- -- 24
2020-07-15 19:00:00 28.6 17 Nordeste 30 Nordeste 0 -- -- 22
2020-07-15 18:00:00 28.7 16 Nordeste 41 Nordeste 0 -- -- 21
2020-07-15 17:00:00 28.2 13 Norte 24 Nordeste 0 -- -- 21
2020-07-15 16:00:00 27.7 15 Nordeste 24 Nordeste 0 -- -- 25
2020-07-15 15:00:00 26.4 12 Nordeste 27 Sudeste 0 -- -- 28
2020-07-15 14:00:00 25 14 Nordeste 25 Este 0 -- -- 30
2020-07-15 13:00:00 23 17 Nordeste 30 Nordeste 0 -- -- 32
2020-07-15 12:00:00 21.3 15 Este 27 Este 0 -- -- 34
2020-07-15 11:00:00 18.5 17 Este 26 Nordeste 0 -- -- 39
2020-07-15 10:00:00 15.9 18 Este 27 Este 0 -- -- 43
2020-07-15 09:00:00 14.1 16 Este 20 Este 0 -- -- 45
2020-07-15 08:00:00 11.7 8 Este 15 Este 0 -- -- 58
2020-07-15 07:00:00 9.9 7 Este 9 Este 0 -- -- 65
2020-07-15 06:00:00 10.5 6 Este 15 Nordeste 0 -- -- 65
2020-07-15 05:00:00 12.6 11 Nordeste 17 Este 0 -- -- 60
2020-07-15 04:00:00 12.3 11 Este 15 Este 0 -- -- 65
2020-07-15 03:00:00 12.7 12 Este 17 Este 0 -- -- 67
2020-07-15 02:00:00 14.5 12 Este 20 Nordeste 0 -- -- 61
2020-07-15 01:00:00 16.3 12 Este 20 Este 0 -- -- 54
2020-07-15 00:00:00 18.4 18 Este 27 Este 0 -- -- 47